Main page
METAR-TAF:

METAR-TAF

Airports :

Cuatro Vientos Airport

Madrid-Cuatro Vientos, Spain

latitude: 40-23N, longitude: 003-47W, elevation: 690 m

Current weather observation

The report was made 31 minutes ago, at 02:00 UTC
Wind 2 kt from variable directions
Temperature 10°C
Humidity 71%
Pressure 1019 hPa
Visibility 10 km or more
Scattered clouds at a height of 4600 ft

METAR: LEVS 060200Z AUTO VRB02KT 9999 SCT046 10/05 Q1019

Time: 03:31 (02:31 UTC)

Forecast

The report was made 3 hours and 31 minutes ago, at 23:00 UTC
Forecast valid from 06 at 00 UTC to 06 at 24 UTC
Wind 5 kt from variable directions
Visibility 10 km or more
Few clouds at a height of 3500 ft
Probability 30% :
Temporary
from 06 at 16 UTC to 06 at 21 UTC
Few clouds at a height of 3000 ft, Towering cumulus.
rain showers

TAF: LEVS 052300Z 0600/0624 VRB05KT 9999 FEW035 TX17/0615Z TN06/0606Z PROB30 TEMPO 0616/0621 SHRA FEW030TCU

Weather observations and forecasts of more than 4000 airports (METAR and TAF reports).

The available stations are represented by yellow and red dots on the map.

Hover mouse over dot to see the name of the station.

Then click to see weather observations and forecasts.

To change the map : click on the green buttons with a black cross to zoom in, on the green button with a dash to zoom out, or on the green arrows for adjacent maps.


METAR-TAF: